< < Back
Terminal Aerodrome Forecast


Current Version              Previous Versions:   1  2  3  4  5  6  7  8  9  

Terminal Aerodrome Forecast

647
FTUS42 KGSP 051603 AAE
TAFGSP
TAF AMD
KGSP 051603Z 0516/0612 21010G17KT P6SM BKN035
      TEMPO 0516/0517 BKN025
     FM051900 21012G20KT P6SM VCTS BKN050CB
     FM060000 21006KT P6SM SCT120 BKN250=

Latest METAR

840
SAUS70 KWBC 061800 RRB
MTRGSP
METAR KGSP 061753Z 24006KT 10SM FEW044 FEW055 SCT065 31/18 A3012 RMK AO2
SLP187 T03110183 10311 20222 58008 $


USA.gov is the U.S. government's official web portal to all federal, state and local government web resources and services.